Time;durP1;ratioP1;P1;durP2;ratioP2;P2;SDS_P1;SDS_P2;PMS_P1;PMS_P2;Temp;Humidity;BMP_temperature;BMP_pressure;BME280_temperature;BME280_humidity;BME280_pressure;Samples;Min_cycle;Max_cycle;Signal;HPM_P1;HPM_P2
2023/07/23 00:01:11;;;;;;;5.97;3.15;;;;;;;;;;5040333;28;20063;-49
2023/07/23 00:03:38;;;;;;;7.05;3.75;;;;;;;;;;5040951;28;20089;-53
2023/07/23 00:06:05;;;;;;;4.15;3.05;;;;;;;;;;5040221;28;20322;-49
2023/07/23 00:08:31;;;;;;;5.88;2.85;;;;;;;;;;5040678;28;20018;-53
2023/07/23 00:10:58;;;;;;;3.33;2.80;;;;;;;;;;5040025;28;20030;-45
2023/07/23 00:13:25;;;;;;;4.10;2.90;;;;;;;;;;5021550;28;20313;-46
2023/07/23 00:15:52;;;;;;;4.07;2.85;;;;;;;;;;5039081;28;20030;-53
2023/07/23 00:18:19;;;;;;;4.00;2.58;;;;;;;;;;5040050;28;20254;-55
2023/07/23 00:20:46;;;;;;;3.25;2.53;;;;;;;;;;5039041;28;20034;-49
2023/07/23 00:23:12;;;;;;;3.28;2.78;;;;;;;;;;5039108;28;20025;-50
2023/07/23 00:25:39;;;;;;;4.70;2.80;;;;;;;;;;5038860;28;20313;-54
2023/07/23 00:28:07;;;;;;;6.35;3.03;;;;;;;;;;5041342;28;20052;-48
2023/07/23 00:30:34;;;;;;;5.70;3.03;;;;;;;;;;5040447;28;20025;-54
2023/07/23 00:33:01;;;;;;;5.47;3.13;;;;;;;;;;5040825;28;20017;-49
2023/07/23 00:35:28;;;;;;;5.95;3.40;;;;;;;;;;5040637;28;20041;-48
2023/07/23 00:37:54;;;;;;;5.35;3.25;;;;;;;;;;5041461;28;20272;-45
2023/07/23 00:40:21;;;;;;;6.15;3.40;;;;;;;;;;5044036;28;20041;-51
2023/07/23 00:42:48;;;;;;;6.95;4.30;;;;;;;;;;5043926;28;20213;-47
2023/07/23 00:45:14;;;;;;;10.05;5.50;;;;;;;;;;5043740;28;20055;-49
2023/07/23 00:47:44;;;;;;;10.63;5.45;;;;;;;;;;5044102;28;20081;-45
2023/07/23 00:50:13;;;;;;;7.10;4.93;;;;;;;;;;5043891;28;20390;-45
2023/07/23 00:52:43;;;;;;;7.78;4.40;;;;;;;;;;5026432;28;20041;-58
2023/07/23 00:55:10;;;;;;;7.18;4.43;;;;;;;;;;5044352;28;20037;-46
2023/07/23 00:57:37;;;;;;;8.40;4.32;;;;;;;;;;5044141;28;20033;-53
2023/07/23 01:00:12;;;;;;;10.52;4.32;;;;;;;;;;5044301;28;20021;-48
2023/07/23 01:02:40;;;;;;;10.70;4.20;;;;;;;;;;5044801;28;20231;-47
2023/07/23 01:05:08;;;;;;;6.15;4.07;;;;;;;;;;5043994;28;20033;-46
2023/07/23 01:07:38;;;;;;;6.70;3.70;;;;;;;;;;5043747;28;20025;-48
2023/07/23 01:10:05;;;;;;;6.93;3.17;;;;;;;;;;5043609;28;20033;-53
2023/07/23 01:12:34;;;;;;;6.60;3.20;;;;;;;;;;5043836;28;20069;-53
2023/07/23 01:15:04;;;;;;;8.90;2.90;;;;;;;;;;5026011;28;20339;-49
2023/07/23 01:17:32;;;;;;;4.95;2.97;;;;;;;;;;5044121;28;20074;-53
2023/07/23 01:19:59;;;;;;;4.25;2.50;;;;;;;;;;5043510;28;20222;-52
2023/07/23 01:22:26;;;;;;;4.53;2.65;;;;;;;;;;5043489;28;20403;-52
2023/07/23 01:24:56;;;;;;;3.80;2.25;;;;;;;;;;5025772;28;20026;-50
2023/07/23 01:27:22;;;;;;;11.00;2.40;;;;;;;;;;5043515;28;20213;-51
2023/07/23 01:29:49;;;;;;;4.55;2.22;;;;;;;;;;5043199;28;20028;-56
2023/07/23 01:32:16;;;;;;;10.50;2.67;;;;;;;;;;5043548;28;20026;-46
2023/07/23 01:34:43;;;;;;;5.68;2.35;;;;;;;;;;5043364;28;20033;-49
2023/07/23 01:37:15;;;;;;;3.70;2.00;;;;;;;;;;5043176;28;20028;-47
2023/07/23 01:39:47;;;;;;;4.75;2.10;;;;;;;;;;5043236;28;20032;-50
2023/07/23 01:42:14;;;;;;;3.38;1.83;;;;;;;;;;5043077;28;20315;-51
2023/07/23 01:44:42;;;;;;;4.28;2.40;;;;;;;;;;5043067;28;20086;-46
2023/07/23 01:47:09;;;;;;;4.32;3.03;;;;;;;;;;5043056;28;20092;-48
2023/07/23 01:49:35;;;;;;;3.83;3.30;;;;;;;;;;5041931;28;20084;-50
2023/07/23 01:52:02;;;;;;;4.22;3.10;;;;;;;;;;5042773;28;20018;-56
2023/07/23 01:54:29;;;;;;;3.22;2.80;;;;;;;;;;5043096;28;20191;-45
2023/07/23 01:56:56;;;;;;;5.10;3.17;;;;;;;;;;5042749;28;20032;-49
2023/07/23 01:59:23;;;;;;;5.90;2.90;;;;;;;;;;5042561;28;20206;-49
2023/07/23 02:01:50;;;;;;;5.93;3.42;;;;;;;;;;5042962;28;20075;-57
2023/07/23 02:04:16;;;;;;;7.28;3.47;;;;;;;;;;5043148;28;20037;-47
2023/07/23 02:06:43;;;;;;;5.32;3.60;;;;;;;;;;5042606;28;20025;-48
2023/07/23 02:09:10;;;;;;;6.65;3.75;;;;;;;;;;5043044;28;20021;-46
2023/07/23 02:11:36;;;;;;;5.20;3.67;;;;;;;;;;5042557;28;20085;-47
2023/07/23 02:14:03;;;;;;;6.03;4.25;;;;;;;;;;5042430;28;20252;-53
2023/07/23 02:16:30;;;;;;;7.60;4.40;;;;;;;;;;5025332;28;20289;-53
2023/07/23 02:18:57;;;;;;;6.30;3.90;;;;;;;;;;5042675;28;20049;-46
2023/07/23 02:21:23;;;;;;;7.15;3.92;;;;;;;;;;5042498;28;20030;-49
2023/07/23 02:23:51;;;;;;;4.90;3.10;;;;;;;;;;5042763;28;20277;-52
2023/07/23 02:26:18;;;;;;;4.28;2.88;;;;;;;;;;5042307;28;20266;-46
2023/07/23 02:28:45;;;;;;;4.90;2.83;;;;;;;;;;5042360;28;20013;-50
2023/07/23 02:31:12;;;;;;;5.43;2.95;;;;;;;;;;5042417;28;20042;-55
2023/07/23 02:33:39;;;;;;;5.82;3.13;;;;;;;;;;5042399;28;20021;-52
2023/07/23 02:36:05;;;;;;;7.15;3.35;;;;;;;;;;5043100;28;20036;-47
2023/07/23 02:38:32;;;;;;;6.20;2.92;;;;;;;;;;5042365;28;20048;-46
2023/07/23 02:41:00;;;;;;;9.48;3.30;;;;;;;;;;5042457;28;20093;-45
2023/07/23 02:43:27;;;;;;;5.85;2.70;;;;;;;;;;5042105;28;20272;-52
2023/07/23 02:45:57;;;;;;;7.05;2.40;;;;;;;;;;5024850;28;20240;-45
2023/07/23 02:48:24;;;;;;;5.10;2.50;;;;;;;;;;5042764;28;20049;-47
2023/07/23 02:50:54;;;;;;;4.20;2.08;;;;;;;;;;5042039;28;20026;-47
2023/07/23 02:53:20;;;;;;;6.72;2.30;;;;;;;;;;5042084;28;20109;-47
2023/07/23 02:55:47;;;;;;;8.93;2.88;;;;;;;;;;5042506;28;20029;-52
2023/07/23 02:58:14;;;;;;;6.82;2.60;;;;;;;;;;5041707;28;20058;-49
2023/07/23 03:00:41;;;;;;;3.72;2.00;;;;;;;;;;5041897;28;20095;-50
2023/07/23 03:03:08;;;;;;;4.57;1.98;;;;;;;;;;5041872;28;20030;-54
2023/07/23 03:05:36;;;;;;;6.43;1.95;;;;;;;;;;5042362;28;20301;-47
2023/07/23 03:08:06;;;;;;;4.63;1.90;;;;;;;;;;5041473;28;20082;-49
2023/07/23 03:10:32;;;;;;;5.70;1.80;;;;;;;;;;5041677;28;20044;-46
2023/07/23 03:12:59;;;;;;;2.50;1.60;;;;;;;;;;5041606;28;20025;-48
2023/07/23 03:15:26;;;;;;;4.18;1.85;;;;;;;;;;5042144;28;20310;-49
2023/07/23 03:17:52;;;;;;;4.13;1.70;;;;;;;;;;5041709;28;20044;-49
2023/07/23 03:20:19;;;;;;;3.63;1.70;;;;;;;;;;5041828;28;20018;-46
2023/07/23 03:22:46;;;;;;;6.95;2.00;;;;;;;;;;5041668;28;20033;-48
2023/07/23 03:25:12;;;;;;;3.42;1.85;;;;;;;;;;5041807;28;20090;-52
2023/07/23 03:27:39;;;;;;;5.60;1.85;;;;;;;;;;5041373;28;20112;-46
2023/07/23 03:30:06;;;;;;;4.05;1.60;;;;;;;;;;5041465;28;20041;-48
2023/07/23 03:32:33;;;;;;;6.10;2.00;;;;;;;;;;5041340;28;20104;-48
2023/07/23 03:35:00;;;;;;;4.50;1.73;;;;;;;;;;5041464;28;20049;-51
2023/07/23 03:37:26;;;;;;;6.57;1.85;;;;;;;;;;5041145;28;20064;-45
2023/07/23 03:39:53;;;;;;;5.38;1.23;;;;;;;;;;5041285;28;20029;-46
2023/07/23 03:42:19;;;;;;;5.07;1.20;;;;;;;;;;5041051;28;20310;-46
2023/07/23 03:44:46;;;;;;;2.58;1.05;;;;;;;;;;5040932;28;20053;-47
2023/07/23 03:47:17;;;;;;;3.65;1.00;;;;;;;;;;5041563;28;20085;-51
2023/07/23 03:49:44;;;;;;;3.35;0.95;;;;;;;;;;5041056;28;20318;-45
2023/07/23 03:52:11;;;;;;;3.13;0.85;;;;;;;;;;5040786;28;20053;-50
2023/07/23 03:54:38;;;;;;;2.70;0.77;;;;;;;;;;5040956;28;20026;-44
2023/07/23 03:57:07;;;;;;;1.88;0.60;;;;;;;;;;5040787;28;20018;-60
2023/07/23 03:59:37;;;;;;;3.88;0.80;;;;;;;;;;5041045;28;20045;-48
2023/07/23 04:02:04;;;;;;;2.15;0.65;;;;;;;;;;5041704;28;20049;-55
2023/07/23 04:04:31;;;;;;;3.63;0.60;;;;;;;;;;5041774;28;20038;-49
2023/07/23 04:06:58;;;;;;;5.28;0.60;;;;;;;;;;5041019;28;20038;-49
2023/07/23 04:09:24;;;;;;;1.95;0.70;;;;;;;;;;5041592;28;20022;-46
2023/07/23 04:11:51;;;;;;;1.70;0.80;;;;;;;;;;5041262;28;20029;-45
2023/07/23 04:14:18;;;;;;;1.80;1.10;;;;;;;;;;5044072;28;20066;-48
2023/07/23 04:16:45;;;;;;;2.60;1.10;;;;;;;;;;5044890;28;20044;-52
2023/07/23 04:19:11;;;;;;;2.00;1.13;;;;;;;;;;5045156;28;20029;-47
2023/07/23 04:21:38;;;;;;;2.15;1.00;;;;;;;;;;5044848;28;20025;-49
2023/07/23 04:24:05;;;;;;;3.85;1.33;;;;;;;;;;5044911;28;20030;-46
2023/07/23 04:26:31;;;;;;;2.78;1.40;;;;;;;;;;5044579;28;20034;-53
2023/07/23 04:28:58;;;;;;;5.10;2.05;;;;;;;;;;5044786;28;20026;-46
2023/07/23 04:31:25;;;;;;;4.68;1.60;;;;;;;;;;5044556;28;20077;-46
2023/07/23 04:33:52;;;;;;;3.15;1.40;;;;;;;;;;5044797;28;20030;-52
2023/07/23 04:36:19;;;;;;;3.55;1.00;;;;;;;;;;5044538;28;20210;-46
2023/07/23 04:38:46;;;;;;;3.25;1.15;;;;;;;;;;5044708;28;20036;-49
2023/07/23 04:41:13;;;;;;;4.90;1.17;;;;;;;;;;5044445;28;20101;-47
2023/07/23 04:43:41;;;;;;;5.15;1.25;;;;;;;;;;5044670;28;20058;-48
2023/07/23 04:46:07;;;;;;;4.28;1.27;;;;;;;;;;5044684;28;20034;-47
2023/07/23 04:48:34;;;;;;;8.00;1.30;;;;;;;;;;5044241;28;20029;-53
2023/07/23 04:51:03;;;;;;;5.15;1.60;;;;;;;;;;5043953;28;20028;-49
2023/07/23 04:53:29;;;;;;;5.90;2.20;;;;;;;;;;5044694;28;20040;-45
2023/07/23 04:55:57;;;;;;;5.80;2.40;;;;;;;;;;5044336;28;20040;-47
2023/07/23 04:58:24;;;;;;;4.53;2.13;;;;;;;;;;5043982;28;20041;-51
2023/07/23 05:00:51;;;;;;;4.07;1.70;;;;;;;;;;5044216;28;20044;-49
2023/07/23 05:03:18;;;;;;;4.10;1.65;;;;;;;;;;5044373;28;20029;-50
2023/07/23 05:05:54;;;;;;;3.15;1.40;;;;;;;;;;5044064;28;20093;-47
2023/07/23 05:08:21;;;;;;;6.10;1.40;;;;;;;;;;5044500;28;20088;-50
2023/07/23 05:10:48;;;;;;;3.35;1.17;;;;;;;;;;5043925;28;20029;-49
2023/07/23 05:13:15;;;;;;;3.58;1.00;;;;;;;;;;5043796;28;20041;-47
2023/07/23 05:15:42;;;;;;;2.85;1.02;;;;;;;;;;5044174;28;20037;-46
2023/07/23 05:18:09;;;;;;;4.78;1.25;;;;;;;;;;5044203;28;20047;-46
2023/07/23 05:20:36;;;;;;;4.95;0.98;;;;;;;;;;5043859;28;20053;-47
2023/07/23 05:23:03;;;;;;;3.97;0.88;;;;;;;;;;5043634;28;20060;-48
2023/07/23 05:25:29;;;;;;;2.97;0.90;;;;;;;;;;5043536;28;20033;-49
2023/07/23 05:27:56;;;;;;;5.93;0.90;;;;;;;;;;5043323;28;20089;-48
2023/07/23 05:30:23;;;;;;;5.75;0.90;;;;;;;;;;5043727;28;20038;-55
2023/07/23 05:32:50;;;;;;;4.75;1.00;;;;;;;;;;5043872;28;20013;-54
2023/07/23 05:35:16;;;;;;;5.05;0.90;;;;;;;;;;5044265;28;20348;-51
2023/07/23 05:37:43;;;;;;;4.75;0.93;;;;;;;;;;5043544;28;20041;-52
2023/07/23 05:40:10;;;;;;;4.97;1.05;;;;;;;;;;5044403;28;20029;-50
2023/07/23 05:42:36;;;;;;;3.47;0.80;;;;;;;;;;5047555;28;20081;-55
2023/07/23 05:45:03;;;;;;;3.80;1.20;;;;;;;;;;5042758;28;20301;-45
2023/07/23 05:47:30;;;;;;;5.28;1.10;;;;;;;;;;5042808;28;20125;-45
2023/07/23 05:49:56;;;;;;;6.25;1.02;;;;;;;;;;5043030;28;20098;-45
2023/07/23 05:52:23;;;;;;;8.15;1.23;;;;;;;;;;5042001;28;20202;-47
2023/07/23 05:54:50;;;;;;;3.13;1.15;;;;;;;;;;5043102;28;20028;-52
2023/07/23 05:57:16;;;;;;;5.00;1.10;;;;;;;;;;5042386;28;20029;-49
2023/07/23 05:59:43;;;;;;;4.15;1.00;;;;;;;;;;5143363;27;20230;-56
2023/07/23 06:02:10;;;;;;;4.75;1.05;;;;;;;;;;5146943;27;20027;-47
2023/07/23 06:04:39;;;;;;;6.30;1.40;;;;;;;;;;5147175;27;20053;-50
2023/07/23 06:07:05;;;;;;;5.75;1.55;;;;;;;;;;5146845;27;20052;-53
2023/07/23 06:09:32;;;;;;;3.90;1.38;;;;;;;;;;5147213;27;20015;-51
2023/07/23 06:11:59;;;;;;;5.90;1.30;;;;;;;;;;5143102;27;20269;-56
2023/07/23 06:14:26;;;;;;;7.78;1.52;;;;;;;;;;5137621;27;20027;-54
2023/07/23 06:16:52;;;;;;;6.20;1.52;;;;;;;;;;5146686;27;20019;-59
2023/07/23 06:19:19;;;;;;;4.93;1.25;;;;;;;;;;5146801;27;20027;-55
2023/07/23 06:21:46;;;;;;;7.70;1.67;;;;;;;;;;5146561;27;20039;-54
2023/07/23 06:24:13;;;;;;;3.28;1.27;;;;;;;;;;5146398;27;20079;-57
2023/07/23 06:26:39;;;;;;;5.88;1.30;;;;;;;;;;5146353;27;20041;-57
2023/07/23 06:29:06;;;;;;;3.13;1.08;;;;;;;;;;5146649;27;20038;-53
2023/07/23 06:31:34;;;;;;;3.15;1.23;;;;;;;;;;5146453;27;20068;-58
2023/07/23 06:34:00;;;;;;;2.15;1.20;;;;;;;;;;5146478;27;20035;-54
2023/07/23 06:36:27;;;;;;;3.88;1.00;;;;;;;;;;5127168;27;20047;-55
2023/07/23 06:38:54;;;;;;;5.57;1.20;;;;;;;;;;5146396;27;20015;-57
2023/07/23 06:41:20;;;;;;;3.58;1.10;;;;;;;;;;5146123;27;20041;-56
2023/07/23 06:43:47;;;;;;;4.80;1.30;;;;;;;;;;5146254;27;20026;-54
2023/07/23 06:46:17;;;;;;;5.03;1.30;;;;;;;;;;5146072;27;20038;-54
2023/07/23 06:48:44;;;;;;;4.95;1.40;;;;;;;;;;5146112;27;20037;-55
2023/07/23 06:51:11;;;;;;;4.70;1.30;;;;;;;;;;5146027;27;20052;-48
2023/07/23 06:53:37;;;;;;;3.65;1.45;;;;;;;;;;5146174;27;20087;-50
2023/07/23 06:56:05;;;;;;;7.68;1.67;;;;;;;;;;5145854;27;20031;-45
2023/07/23 06:58:37;;;;;;;4.85;1.85;;;;;;;;;;5146043;27;20059;-48
2023/07/23 07:01:04;;;;;;;3.23;1.33;;;;;;;;;;5145732;27;20033;-62
2023/07/23 07:03:31;;;;;;;3.20;1.20;;;;;;;;;;5145759;27;20318;-62
2023/07/23 07:05:59;;;;;;;3.22;1.30;;;;;;;;;;5145827;27;20223;-55
2023/07/23 07:08:26;;;;;;;4.22;1.52;;;;;;;;;;5145813;27;20176;-54
2023/07/23 07:11:03;;;;;;;5.93;1.40;;;;;;;;;;5145476;27;20039;-46
2023/07/23 07:13:31;;;;;;;6.53;1.30;;;;;;;;;;5145673;27;20095;-52
2023/07/23 07:15:57;;;;;;;3.97;1.20;;;;;;;;;;5145506;27;20038;-52
2023/07/23 07:18:25;;;;;;;7.75;1.35;;;;;;;;;;5145455;27;20014;-54
2023/07/23 07:20:57;;;;;;;4.28;1.50;;;;;;;;;;5145437;27;20316;-54
2023/07/23 07:23:24;;;;;;;;;;;;;;;;;;5145951;27;20023;-48
2023/07/23 07:25:50;;;;;;;2.10;1.17;;;;;;;;;;5145264;27;19907;-50
2023/07/23 07:28:17;;;;;;;4.90;1.45;;;;;;;;;;5145241;27;20019;-50
2023/07/23 07:30:44;;;;;;;3.00;1.40;;;;;;;;;;5145173;27;20034;-46
2023/07/23 07:33:11;;;;;;;4.55;1.52;;;;;;;;;;5145178;27;20299;-49
2023/07/23 07:35:38;;;;;;;4.05;1.63;;;;;;;;;;5145384;27;20357;-48
2023/07/23 07:38:04;;;;;;;6.80;1.48;;;;;;;;;;5145339;27;20068;-52
2023/07/23 07:40:31;;;;;;;6.72;1.50;;;;;;;;;;5144870;27;20035;-47
2023/07/23 07:42:58;;;;;;;2.72;1.40;;;;;;;;;;5145011;27;20050;-51
2023/07/23 07:45:25;;;;;;;3.90;1.80;;;;;;;;;;5145178;27;20327;-55
2023/07/23 07:47:51;;;;;;;5.38;2.03;;;;;;;;;;5144886;27;20027;-50
2023/07/23 07:50:18;;;;;;;4.25;1.92;;;;;;;;;;5145152;27;20031;-46
2023/07/23 07:52:45;;;;;;;3.42;1.83;;;;;;;;;;5145053;27;20027;-51
2023/07/23 07:55:12;;;;;;;4.57;2.10;;;;;;;;;;5144885;28;20027;-51
2023/07/23 07:57:38;;;;;;;3.88;2.15;;;;;;;;;;5144671;28;20361;-49
2023/07/23 08:00:07;;;;;;;2.92;2.05;;;;;;;;;;5145409;28;20091;-47
2023/07/23 08:02:34;;;;;;;6.93;2.10;;;;;;;;;;5144699;28;20338;-45
2023/07/23 08:05:01;;;;;;;5.55;2.08;;;;;;;;;;5145481;28;20041;-51
2023/07/23 08:07:27;;;;;;;4.20;1.90;;;;;;;;;;5144968;28;20067;-52
2023/07/23 08:09:55;;;;;;;4.78;1.80;;;;;;;;;;5145227;28;20071;-45
2023/07/23 08:12:23;;;;;;;4.15;1.50;;;;;;;;;;5144839;28;20092;-48
2023/07/23 08:14:51;;;;;;;4.40;1.85;;;;;;;;;;5145217;28;20260;-52
2023/07/23 08:17:18;;;;;;;5.43;1.80;;;;;;;;;;5144702;28;20035;-52
2023/07/23 08:19:45;;;;;;;5.43;1.85;;;;;;;;;;5145009;28;20229;-50
2023/07/23 08:22:11;;;;;;;3.65;1.80;;;;;;;;;;5144846;28;20027;-47
2023/07/23 08:24:38;;;;;;;5.90;2.03;;;;;;;;;;5144845;28;20041;-50
2023/07/23 08:27:07;;;;;;;3.80;1.75;;;;;;;;;;5144699;28;20031;-56
2023/07/23 08:29:35;;;;;;;5.90;1.70;;;;;;;;;;5144318;28;20044;-57
2023/07/23 08:32:02;;;;;;;4.55;1.80;;;;;;;;;;5144573;28;20075;-59
2023/07/23 08:34:29;;;;;;;5.15;1.80;;;;;;;;;;5145127;28;20038;-53
2023/07/23 08:36:56;;;;;;;4.00;1.95;;;;;;;;;;5144713;28;20035;-47
2023/07/23 08:39:22;;;;;;;7.38;1.73;;;;;;;;;;5144769;28;20181;-48
2023/07/23 08:42:01;;;;;;;5.53;1.70;;;;;;;;;;5144574;28;20099;-48
2023/07/23 08:44:46;;;;;;;5.50;1.70;;;;;;;;;;5144968;28;20082;-51
2023/07/23 08:47:13;;;;;;;6.85;2.05;;;;;;;;;;5144516;28;20031;-50
2023/07/23 08:49:44;;;;;;;7.57;2.33;;;;;;;;;;5144974;28;20195;-47
2023/07/23 08:52:13;;;;;;;4.63;1.90;;;;;;;;;;5144349;28;20030;-49
2023/07/23 08:54:40;;;;;;;8.07;2.13;;;;;;;;;;5144667;28;20211;-51
2023/07/23 08:57:08;;;;;;;3.25;1.67;;;;;;;;;;5144193;28;20023;-50
2023/07/23 08:59:36;;;;;;;7.88;2.05;;;;;;;;;;5145879;27;20057;-52
2023/07/23 09:02:03;;;;;;;5.93;1.73;;;;;;;;;;5148076;27;20031;-52
2023/07/23 09:04:29;;;;;;;5.22;1.83;;;;;;;;;;5148459;27;20322;-53
2023/07/23 09:06:58;;;;;;;5.78;1.90;;;;;;;;;;5147800;27;20213;-52
2023/07/23 09:09:25;;;;;;;7.07;2.00;;;;;;;;;;5148129;27;20029;-48
2023/07/23 09:11:51;;;;;;;9.20;2.10;;;;;;;;;;5147730;27;20038;-49
2023/07/23 09:14:18;;;;;;;6.43;2.10;;;;;;;;;;5148184;27;20367;-46
2023/07/23 09:16:46;;;;;;;3.58;1.90;;;;;;;;;;5148002;27;20035;-47
2023/07/23 09:19:14;;;;;;;6.13;2.00;;;;;;;;;;5148094;27;20031;-55
2023/07/23 09:21:42;;;;;;;8.30;1.67;;;;;;;;;;5147672;27;20059;-50
2023/07/23 09:24:12;;;;;;;6.25;1.70;;;;;;;;;;5147944;27;20178;-46
2023/07/23 09:26:39;;;;;;;4.22;1.63;;;;;;;;;;5147446;27;20027;-47
2023/07/23 09:29:09;;;;;;;6.10;2.28;;;;;;;;;;5147921;27;20023;-48
2023/07/23 09:31:36;;;;;;;7.55;2.08;;;;;;;;;;5147476;27;20035;-50
2023/07/23 09:34:03;;;;;;;8.82;2.05;;;;;;;;;;5147656;27;20180;-54
2023/07/23 09:36:31;;;;;;;9.27;2.00;;;;;;;;;;5147579;27;20064;-48
2023/07/23 09:38:58;;;;;;;8.15;1.52;;;;;;;;;;5147444;27;20241;-51
2023/07/23 09:41:29;;;;;;;7.18;1.58;;;;;;;;;;5147089;27;20035;-51
2023/07/23 09:43:58;;;;;;;8.00;1.70;;;;;;;;;;5147426;27;20068;-50
2023/07/23 09:46:25;;;;;;;5.18;1.40;;;;;;;;;;5147152;27;20042;-48
2023/07/23 09:48:52;;;;;;;8.80;1.80;;;;;;;;;;5147285;27;20030;-49
2023/07/23 09:51:19;;;;;;;7.40;1.50;;;;;;;;;;5147345;27;20027;-50
2023/07/23 09:53:46;;;;;;;5.28;1.60;;;;;;;;;;5147350;27;20027;-48
2023/07/23 09:56:13;;;;;;;6.97;1.88;;;;;;;;;;5146963;27;20327;-51
2023/07/23 09:58:40;;;;;;;4.13;1.45;;;;;;;;;;5146963;27;20050;-53
2023/07/23 10:01:07;;;;;;;7.47;1.60;;;;;;;;;;5146923;27;20042;-52
2023/07/23 10:03:34;;;;;;;4.95;1.60;;;;;;;;;;5146717;27;20303;-50
2023/07/23 10:06:01;;;;;;;2.55;1.55;;;;;;;;;;5146976;27;20018;-54
2023/07/23 10:08:28;;;;;;;7.75;1.67;;;;;;;;;;5147006;27;20309;-50
2023/07/23 10:10:54;;;;;;;5.65;1.40;;;;;;;;;;5145522;27;20323;-46
2023/07/23 10:13:21;;;;;;;6.35;1.67;;;;;;;;;;5147014;27;20093;-54
2023/07/23 10:15:48;;;;;;;4.90;1.35;;;;;;;;;;5146552;27;20031;-54
2023/07/23 10:18:15;;;;;;;6.40;1.40;;;;;;;;;;5146640;27;20050;-55
2023/07/23 10:20:45;;;;;;;4.63;1.42;;;;;;;;;;5146392;27;20027;-51
2023/07/23 10:23:11;;;;;;;4.82;1.45;;;;;;;;;;5146642;27;20326;-49
2023/07/23 10:25:38;;;;;;;8.15;1.73;;;;;;;;;;5146406;27;20042;-52
2023/07/23 10:28:04;;;;;;;5.35;1.70;;;;;;;;;;5146617;27;20011;-51
2023/07/23 10:30:33;;;;;;;7.03;1.55;;;;;;;;;;5146406;27;20137;-49
2023/07/23 10:33:12;;;;;;;5.28;1.38;;;;;;;;;;5146459;27;20031;-54
2023/07/23 10:36:06;;;;;;;4.22;1.90;;;;;;;;;;5146320;27;20050;-50
2023/07/23 10:38:34;;;;;;;5.82;1.60;;;;;;;;;;5146290;27;20094;-51
2023/07/23 10:41:01;;;;;;;6.13;1.80;;;;;;;;;;5142236;27;20071;-50
2023/07/23 10:44:00;;;;;;;8.30;1.65;;;;;;;;;;5134528;27;20108;-53
2023/07/23 10:46:27;;;;;;;7.03;1.50;;;;;;;;;;5080934;28;20269;-51
2023/07/23 10:48:55;;;;;;;5.78;1.70;;;;;;;;;;5125532;28;20050;-50
2023/07/23 10:51:23;;;;;;;5.00;1.45;;;;;;;;;;5125324;28;20028;-52
2023/07/23 10:53:56;;;;;;;6.97;1.50;;;;;;;;;;5125563;28;20076;-59
2023/07/23 10:56:41;;;;;;;6.47;1.38;;;;;;;;;;5125208;28;20219;-47
2023/07/23 10:59:09;;;;;;;7.63;1.50;;;;;;;;;;5065295;28;20063;-52
2023/07/23 11:01:37;;;;;;;6.00;1.60;;;;;;;;;;5041447;28;20034;-52
2023/07/23 11:04:12;;;;;;;7.97;1.83;;;;;;;;;;5041851;28;20018;-57
2023/07/23 11:06:41;;;;;;;10.35;1.40;;;;;;;;;;5041443;28;20033;-56
2023/07/23 11:09:11;;;;;;;6.22;1.38;;;;;;;;;;5041879;28;20025;-50
2023/07/23 11:11:41;;;;;;;9.18;1.42;;;;;;;;;;5041508;28;20033;-47
2023/07/23 11:14:18;;;;;;;3.85;1.45;;;;;;;;;;5041608;28;20044;-46
2023/07/23 11:16:47;;;;;;;5.63;1.63;;;;;;;;;;5041344;28;20033;-52
2023/07/23 11:19:14;;;;;;;6.05;1.52;;;;;;;;;;5041576;28;20370;-51
2023/07/23 11:21:45;;;;;;;6.40;1.80;;;;;;;;;;5041054;28;20033;-48
2023/07/23 11:24:11;;;;;;;6.22;1.65;;;;;;;;;;5041566;28;20013;-47
2023/07/23 11:26:39;;;;;;;7.72;1.58;;;;;;;;;;5041187;28;20098;-55
2023/07/23 11:29:05;;;;;;;8.18;1.75;;;;;;;;;;5041402;28;20026;-56
2023/07/23 11:31:32;;;;;;;7.40;1.80;;;;;;;;;;5041296;28;20028;-47
2023/07/23 11:34:00;;;;;;;6.57;1.73;;;;;;;;;;5041369;28;20034;-46
2023/07/23 11:36:29;;;;;;;4.95;1.40;;;;;;;;;;5041365;28;20037;-53
2023/07/23 11:38:57;;;;;;;5.50;1.60;;;;;;;;;;5041407;28;20111;-55
2023/07/23 11:41:52;;;;;;;4.65;1.30;;;;;;;;;;5040733;28;20352;-55
2023/07/23 11:44:19;;;;;;;6.38;1.48;;;;;;;;;;5045684;28;20041;-54
2023/07/23 11:46:49;;;;;;;6.53;2.45;;;;;;;;;;5041010;28;20033;-52
2023/07/23 11:49:35;;;;;;;8.60;5.13;;;;;;;;;;5023943;28;20022;-55
2023/07/23 11:52:02;;;;;;;16.00;7.93;;;;;;;;;;5036862;28;20028;-51
2023/07/23 11:54:32;;;;;;;10.00;6.88;;;;;;;;;;5060858;28;20088;-56
2023/07/23 11:56:59;;;;;;;8.30;4.90;;;;;;;;;;5061307;28;20021;-55
2023/07/23 11:59:25;;;;;;;10.80;4.05;;;;;;;;;;5041823;28;20136;-55
2023/07/23 12:01:55;;;;;;;9.05;3.65;;;;;;;;;;5041113;28;20066;-46
2023/07/23 12:04:22;;;;;;;6.75;3.15;;;;;;;;;;5040923;28;20086;-46
2023/07/23 12:06:48;;;;;;;11.20;3.75;;;;;;;;;;5041085;28;20047;-44
2023/07/23 12:09:15;;;;;;;13.93;3.50;;;;;;;;;;5040853;28;20044;-45
2023/07/23 12:11:43;;;;;;;8.55;2.90;;;;;;;;;;5040705;28;20313;-57
2023/07/23 12:14:12;;;;;;;8.63;2.80;;;;;;;;;;5040652;28;20044;-57
2023/07/23 12:16:49;;;;;;;7.15;2.60;;;;;;;;;;5040430;28;20055;-56
2023/07/23 12:19:23;;;;;;;11.45;2.95;;;;;;;;;;5040404;28;20143;-54
2023/07/23 12:21:52;;;;;;;9.40;3.40;;;;;;;;;;5040579;28;20080;-57
2023/07/23 12:24:44;;;;;;;13.60;5.07;;;;;;;;;;5040687;28;20030;-52
2023/07/23 12:27:11;;;;;;;15.02;6.65;;;;;;;;;;5039602;28;20029;-51
2023/07/23 12:29:43;;;;;;;14.55;6.70;;;;;;;;;;5040522;28;20036;-57
2023/07/23 12:32:14;;;;;;;18.52;10.60;;;;;;;;;;5040634;28;20028;-49
2023/07/23 12:34:42;;;;;;;36.05;20.95;;;;;;;;;;5041811;28;20281;-50
2023/07/23 12:37:09;;;;;;;41.50;25.02;;;;;;;;;;5026456;28;20377;-49
2023/07/23 12:39:36;;;;;;;34.30;20.90;;;;;;;;;;5043949;28;20025;-55
2023/07/23 12:42:03;;;;;;;27.13;15.57;;;;;;;;;;5044014;28;20098;-57
2023/07/23 12:44:32;;;;;;;6.90;3.45;;;;;;;;;;5043622;28;20034;-48
2023/07/23 12:46:59;;;;;;;8.57;3.00;;;;;;;;;;5043982;28;20206;-52
2023/07/23 12:49:26;;;;;;;9.13;2.90;;;;;;;;;;5043861;28;20029;-51
2023/07/23 12:51:53;;;;;;;8.95;2.92;;;;;;;;;;5043903;28;20045;-52
2023/07/23 12:54:20;;;;;;;7.25;2.67;;;;;;;;;;5043863;28;20030;-48
2023/07/23 12:56:55;;;;;;;7.32;2.58;;;;;;;;;;5143981;27;20090;-54
2023/07/23 12:59:22;;;;;;;7.53;2.20;;;;;;;;;;5147942;27;20099;-49
2023/07/23 13:01:53;;;;;;;7.57;2.33;;;;;;;;;;5148351;27;20368;-49
2023/07/23 13:04:19;;;;;;;5.20;1.80;;;;;;;;;;5148097;27;20209;-48
2023/07/23 13:06:50;;;;;;;15.50;2.67;;;;;;;;;;5146463;27;20053;-48
2023/07/23 13:09:21;;;;;;;7.43;2.63;;;;;;;;;;5033037;28;20061;-55
2023/07/23 13:11:53;;;;;;;7.13;2.60;;;;;;;;;;5014889;28;20262;-53
2023/07/23 13:14:19;;;;;;;11.98;3.08;;;;;;;;;;5023772;28;20022;-49
2023/07/23 13:16:49;;;;;;;7.75;2.83;;;;;;;;;;5035921;28;20022;-48
2023/07/23 13:19:15;;;;;;;5.07;2.28;;;;;;;;;;5032491;28;20078;-55
2023/07/23 13:21:45;;;;;;;6.85;2.35;;;;;;;;;;5032805;28;20021;-51
2023/07/23 13:24:14;;;;;;;4.28;2.65;;;;;;;;;;5023539;28;20026;-53
2023/07/23 13:26:41;;;;;;;5.05;2.63;;;;;;;;;;5023483;28;20055;-62
2023/07/23 13:29:10;;;;;;;7.38;2.70;;;;;;;;;;5023632;28;20025;-49
2023/07/23 13:31:45;;;;;;;7.03;3.00;;;;;;;;;;5039130;28;20368;-57
2023/07/23 13:34:11;;;;;;;8.38;3.38;;;;;;;;;;5043125;28;20053;-52
2023/07/23 13:36:38;;;;;;;8.68;3.20;;;;;;;;;;5043027;28;20040;-53
2023/07/23 13:39:05;;;;;;;8.13;3.83;;;;;;;;;;5043180;28;20026;-52
2023/07/23 13:41:31;;;;;;;9.75;4.10;;;;;;;;;;5046678;28;20041;-53
2023/07/23 13:43:58;;;;;;;11.77;4.32;;;;;;;;;;5050241;28;20021;-53
2023/07/23 13:46:25;;;;;;;8.50;3.30;;;;;;;;;;5042649;28;20375;-57
2023/07/23 13:48:51;;;;;;;6.13;3.20;;;;;;;;;;5042967;28;20056;-59
2023/07/23 13:51:20;;;;;;;5.10;2.63;;;;;;;;;;5042957;28;20044;-55
2023/07/23 13:53:47;;;;;;;5.05;2.67;;;;;;;;;;5042766;28;20025;-54
2023/07/23 13:56:14;;;;;;;5.78;2.30;;;;;;;;;;5042635;28;20114;-50
2023/07/23 13:58:41;;;;;;;3.45;2.05;;;;;;;;;;5042766;28;20162;-50
2023/07/23 14:01:07;;;;;;;5.45;1.98;;;;;;;;;;5042512;28;20032;-47
2023/07/23 14:03:35;;;;;;;3.80;2.08;;;;;;;;;;5042790;28;20339;-47
2023/07/23 14:06:05;;;;;;;4.70;2.08;;;;;;;;;;5042870;28;20053;-51
2023/07/23 14:08:34;;;;;;;2.30;1.65;;;;;;;;;;5055211;28;20040;-48
2023/07/23 14:11:02;;;;;;;3.00;1.40;;;;;;;;;;5048984;27;20025;-48
2023/07/23 14:13:28;;;;;;;5.30;1.98;;;;;;;;;;5061200;27;20033;-48
2023/07/23 14:15:57;;;;;;;2.40;1.70;;;;;;;;;;5042760;28;20025;-48
2023/07/23 14:18:36;;;;;;;2.85;1.80;;;;;;;;;;5050118;28;20028;-54
2023/07/23 14:21:29;;;;;;;2.08;1.63;;;;;;;;;;5033350;28;20041;-54
2023/07/23 14:23:59;;;;;;;2.60;1.65;;;;;;;;;;5062218;28;20055;-50
2023/07/23 14:26:26;;;;;;;3.60;1.38;;;;;;;;;;5062704;28;20086;-51
2023/07/23 14:29:04;;;;;;;2.58;1.35;;;;;;;;;;5062723;28;20013;-56
2023/07/23 14:31:42;;;;;;;;;;;;;;;;;;;;;
2023/07/23 14:34:13;;;;;;;1.58;1.30;;;;;;;;;;5062307;28;20074;-53
2023/07/23 14:36:40;;;;;;;1.70;1.30;;;;;;;;;;5062709;28;20021;-52
2023/07/23 14:39:42;;;;;;;2.33;1.17;;;;;;;;;;5062607;28;20109;-50
2023/07/23 14:42:10;;;;;;;3.00;1.20;;;;;;;;;;5063101;28;20043;-59
2023/07/23 14:44:39;;;;;;;1.85;0.95;;;;;;;;;;5062102;28;20029;-55
2023/07/23 14:47:15;;;;;;;2.85;1.00;;;;;;;;;;5062509;28;20025;-53
2023/07/23 14:50:01;;;;;;;1.00;0.90;;;;;;;;;;5062223;28;20028;-51